sensor_id;sensor_type;location;lat;lon;timestamp;P1;durP1;ratioP1;P2;durP2;ratioP2
15104;SDS011;7653;48.994;9.212;2022-09-06T00:01:15;2.37;;;2.17;;
15104;SDS011;7653;48.994;9.212;2022-09-06T00:03:41;2.80;;;2.47;;
15104;SDS011;7653;48.994;9.212;2022-09-06T00:06:08;3.73;;;2.77;;
15104;SDS011;7653;48.994;9.212;2022-09-06T00:08:36;3.17;;;2.73;;
15104;SDS011;7653;48.994;9.212;2022-09-06T00:11:02;2.33;;;2.10;;
15104;SDS011;7653;48.994;9.212;2022-09-06T00:13:28;4.87;;;2.50;;
15104;SDS011;7653;48.994;9.212;2022-09-06T00:15:54;3.40;;;2.23;;
15104;SDS011;7653;48.994;9.212;2022-09-06T00:18:20;3.33;;;2.40;;
15104;SDS011;7653;48.994;9.212;2022-09-06T00:20:46;3.50;;;2.60;;
15104;SDS011;7653;48.994;9.212;2022-09-06T00:23:11;4.63;;;2.70;;
15104;SDS011;7653;48.994;9.212;2022-09-06T00:25:37;3.23;;;2.60;;
15104;SDS011;7653;48.994;9.212;2022-09-06T00:28:03;2.53;;;2.33;;
15104;SDS011;7653;48.994;9.212;2022-09-06T00:30:30;3.93;;;2.70;;
15104;SDS011;7653;48.994;9.212;2022-09-06T00:32:57;3.23;;;2.90;;
15104;SDS011;7653;48.994;9.212;2022-09-06T00:35:23;2.77;;;2.37;;
15104;SDS011;7653;48.994;9.212;2022-09-06T00:37:50;4.80;;;3.00;;
15104;SDS011;7653;48.994;9.212;2022-09-06T00:40:20;2.93;;;2.73;;
15104;SDS011;7653;48.994;9.212;2022-09-06T00:42:46;3.43;;;2.80;;
15104;SDS011;7653;48.994;9.212;2022-09-06T00:45:11;3.70;;;2.33;;
15104;SDS011;7653;48.994;9.212;2022-09-06T00:47:39;3.53;;;2.57;;
15104;SDS011;7653;48.994;9.212;2022-09-06T00:50:07;2.70;;;2.50;;
15104;SDS011;7653;48.994;9.212;2022-09-06T00:52:34;2.97;;;2.40;;
15104;SDS011;7653;48.994;9.212;2022-09-06T00:55:02;4.40;;;2.70;;
15104;SDS011;7653;48.994;9.212;2022-09-06T00:57:28;2.80;;;2.60;;
15104;SDS011;7653;48.994;9.212;2022-09-06T00:59:56;3.30;;;2.60;;
15104;SDS011;7653;48.994;9.212;2022-09-06T01:02:22;3.90;;;2.80;;
15104;SDS011;7653;48.994;9.212;2022-09-06T01:04:48;5.50;;;2.60;;
15104;SDS011;7653;48.994;9.212;2022-09-06T01:15:14;3.57;;;2.80;;
15104;SDS011;7653;48.994;9.212;2022-09-06T01:17:57;3.90;;;2.83;;
15104;SDS011;7653;48.994;9.212;2022-09-06T01:23:58;5.47;;;2.57;;
15104;SDS011;7653;48.994;9.212;2022-09-06T01:34:46;3.90;;;2.50;;
15104;SDS011;7653;48.994;9.212;2022-09-06T01:37:16;5.17;;;2.90;;
15104;SDS011;7653;48.994;9.212;2022-09-06T01:39:46;2.90;;;2.60;;
15104;SDS011;7653;48.994;9.212;2022-09-06T01:42:14;2.80;;;2.60;;
15104;SDS011;7653;48.994;9.212;2022-09-06T01:44:44;2.77;;;2.43;;
15104;SDS011;7653;48.994;9.212;2022-09-06T01:52:33;2.93;;;2.40;;
15104;SDS011;7653;48.994;9.212;2022-09-06T02:00:32;5.27;;;2.80;;
15104;SDS011;7653;48.994;9.212;2022-09-06T02:03:48;3.03;;;2.63;;
15104;SDS011;7653;48.994;9.212;2022-09-06T02:06:17;4.90;;;2.50;;
15104;SDS011;7653;48.994;9.212;2022-09-06T02:08:48;3.37;;;2.60;;
15104;SDS011;7653;48.994;9.212;2022-09-06T02:11:19;4.07;;;2.73;;
15104;SDS011;7653;48.994;9.212;2022-09-06T02:13:48;4.03;;;2.60;;
15104;SDS011;7653;48.994;9.212;2022-09-06T02:16:19;3.23;;;2.90;;
15104;SDS011;7653;48.994;9.212;2022-09-06T02:18:53;3.30;;;2.90;;
15104;SDS011;7653;48.994;9.212;2022-09-06T02:21:21;3.30;;;3.00;;
15104;SDS011;7653;48.994;9.212;2022-09-06T02:23:58;3.77;;;2.87;;
15104;SDS011;7653;48.994;9.212;2022-09-06T02:26:27;3.50;;;2.80;;
15104;SDS011;7653;48.994;9.212;2022-09-06T02:28:56;4.27;;;2.80;;
15104;SDS011;7653;48.994;9.212;2022-09-06T02:33:47;3.50;;;3.20;;
15104;SDS011;7653;48.994;9.212;2022-09-06T02:36:15;5.10;;;2.80;;
15104;SDS011;7653;48.994;9.212;2022-09-06T02:38:42;2.80;;;2.57;;
15104;SDS011;7653;48.994;9.212;2022-09-06T02:41:09;3.80;;;2.70;;
15104;SDS011;7653;48.994;9.212;2022-09-06T02:43:38;3.17;;;2.87;;
15104;SDS011;7653;48.994;9.212;2022-09-06T02:46:06;3.47;;;2.87;;
15104;SDS011;7653;48.994;9.212;2022-09-06T02:48:31;5.30;;;3.17;;
15104;SDS011;7653;48.994;9.212;2022-09-06T02:51:00;3.67;;;3.30;;
15104;SDS011;7653;48.994;9.212;2022-09-06T02:53:27;4.90;;;3.70;;
15104;SDS011;7653;48.994;9.212;2022-09-06T02:55:52;6.47;;;3.30;;
15104;SDS011;7653;48.994;9.212;2022-09-06T02:58:18;5.90;;;3.53;;
15104;SDS011;7653;48.994;9.212;2022-09-06T03:00:43;5.33;;;3.67;;
15104;SDS011;7653;48.994;9.212;2022-09-06T03:03:09;5.03;;;3.73;;
15104;SDS011;7653;48.994;9.212;2022-09-06T03:05:35;4.47;;;4.07;;
15104;SDS011;7653;48.994;9.212;2022-09-06T03:08:01;4.07;;;3.67;;
15104;SDS011;7653;48.994;9.212;2022-09-06T03:10:27;4.43;;;4.00;;
15104;SDS011;7653;48.994;9.212;2022-09-06T03:12:54;4.17;;;3.77;;
15104;SDS011;7653;48.994;9.212;2022-09-06T03:15:19;4.20;;;3.80;;
15104;SDS011;7653;48.994;9.212;2022-09-06T03:17:45;5.60;;;4.40;;
15104;SDS011;7653;48.994;9.212;2022-09-06T03:20:11;4.87;;;3.93;;
15104;SDS011;7653;48.994;9.212;2022-09-06T03:22:37;6.47;;;4.30;;
15104;SDS011;7653;48.994;9.212;2022-09-06T03:25:04;5.20;;;4.30;;
15104;SDS011;7653;48.994;9.212;2022-09-06T03:27:32;5.97;;;4.73;;
15104;SDS011;7653;48.994;9.212;2022-09-06T03:29:59;5.50;;;4.90;;
15104;SDS011;7653;48.994;9.212;2022-09-06T03:32:26;7.10;;;4.80;;
15104;SDS011;7653;48.994;9.212;2022-09-06T03:34:52;6.60;;;4.93;;
15104;SDS011;7653;48.994;9.212;2022-09-06T03:37:18;7.93;;;5.33;;
15104;SDS011;7653;48.994;9.212;2022-09-06T03:39:45;6.33;;;4.87;;
15104;SDS011;7653;48.994;9.212;2022-09-06T03:42:11;7.43;;;4.80;;
15104;SDS011;7653;48.994;9.212;2022-09-06T03:44:39;7.07;;;4.50;;
15104;SDS011;7653;48.994;9.212;2022-09-06T03:47:05;5.27;;;4.77;;
15104;SDS011;7653;48.994;9.212;2022-09-06T03:49:31;5.50;;;5.00;;
15104;SDS011;7653;48.994;9.212;2022-09-06T03:51:56;6.43;;;4.70;;
15104;SDS011;7653;48.994;9.212;2022-09-06T03:54:22;8.07;;;5.13;;
15104;SDS011;7653;48.994;9.212;2022-09-06T03:56:48;8.90;;;5.13;;
15104;SDS011;7653;48.994;9.212;2022-09-06T03:59:14;10.47;;;4.93;;
15104;SDS011;7653;48.994;9.212;2022-09-06T04:01:39;5.03;;;4.40;;
15104;SDS011;7653;48.994;9.212;2022-09-06T04:04:05;8.17;;;4.53;;
15104;SDS011;7653;48.994;9.212;2022-09-06T04:06:30;5.50;;;4.77;;
15104;SDS011;7653;48.994;9.212;2022-09-06T04:08:56;5.70;;;4.90;;
15104;SDS011;7653;48.994;9.212;2022-09-06T04:11:22;7.43;;;5.10;;
15104;SDS011;7653;48.994;9.212;2022-09-06T04:13:48;5.27;;;4.77;;
15104;SDS011;7653;48.994;9.212;2022-09-06T04:16:13;7.23;;;5.60;;
15104;SDS011;7653;48.994;9.212;2022-09-06T04:18:41;17.43;;;7.97;;
15104;SDS011;7653;48.994;9.212;2022-09-06T04:21:07;10.47;;;6.90;;
15104;SDS011;7653;48.994;9.212;2022-09-06T04:23:34;9.03;;;6.90;;
15104;SDS011;7653;48.994;9.212;2022-09-06T04:26:00;10.30;;;6.20;;
15104;SDS011;7653;48.994;9.212;2022-09-06T04:28:26;12.27;;;6.43;;
15104;SDS011;7653;48.994;9.212;2022-09-06T04:30:56;9.97;;;6.43;;
15104;SDS011;7653;48.994;9.212;2022-09-06T04:33:23;8.73;;;6.40;;
15104;SDS011;7653;48.994;9.212;2022-09-06T04:35:53;11.43;;;7.10;;
15104;SDS011;7653;48.994;9.212;2022-09-06T04:38:21;9.50;;;6.73;;
15104;SDS011;7653;48.994;9.212;2022-09-06T04:40:50;12.83;;;6.63;;
15104;SDS011;7653;48.994;9.212;2022-09-06T04:43:16;10.60;;;6.43;;
15104;SDS011;7653;48.994;9.212;2022-09-06T04:45:42;9.87;;;7.10;;
15104;SDS011;7653;48.994;9.212;2022-09-06T04:48:08;11.83;;;6.70;;
15104;SDS011;7653;48.994;9.212;2022-09-06T04:50:35;11.43;;;7.20;;
15104;SDS011;7653;48.994;9.212;2022-09-06T04:53:03;11.40;;;7.53;;
15104;SDS011;7653;48.994;9.212;2022-09-06T04:55:28;10.10;;;7.30;;
15104;SDS011;7653;48.994;9.212;2022-09-06T04:57:55;16.43;;;7.17;;
15104;SDS011;7653;48.994;9.212;2022-09-06T05:00:23;12.13;;;7.40;;
15104;SDS011;7653;48.994;9.212;2022-09-06T05:02:53;10.97;;;7.80;;
15104;SDS011;7653;48.994;9.212;2022-09-06T05:05:19;8.63;;;6.37;;
15104;SDS011;7653;48.994;9.212;2022-09-06T05:07:46;11.43;;;7.03;;
15104;SDS011;7653;48.994;9.212;2022-09-06T05:10:12;11.53;;;7.37;;
15104;SDS011;7653;48.994;9.212;2022-09-06T05:12:38;11.90;;;7.10;;
15104;SDS011;7653;48.994;9.212;2022-09-06T05:15:03;11.90;;;7.47;;
15104;SDS011;7653;48.994;9.212;2022-09-06T05:17:31;11.07;;;8.17;;
15104;SDS011;7653;48.994;9.212;2022-09-06T05:19:56;14.87;;;8.30;;
15104;SDS011;7653;48.994;9.212;2022-09-06T05:22:22;8.30;;;7.30;;
15104;SDS011;7653;48.994;9.212;2022-09-06T05:24:47;11.13;;;7.63;;
15104;SDS011;7653;48.994;9.212;2022-09-06T05:27:13;8.97;;;7.50;;
15104;SDS011;7653;48.994;9.212;2022-09-06T05:29:39;11.70;;;7.80;;
15104;SDS011;7653;48.994;9.212;2022-09-06T05:32:06;13.17;;;7.33;;
15104;SDS011;7653;48.994;9.212;2022-09-06T05:34:31;10.17;;;8.30;;
15104;SDS011;7653;48.994;9.212;2022-09-06T05:36:57;9.10;;;7.40;;
15104;SDS011;7653;48.994;9.212;2022-09-06T05:39:22;11.97;;;7.40;;
15104;SDS011;7653;48.994;9.212;2022-09-06T05:41:48;11.00;;;7.57;;
15104;SDS011;7653;48.994;9.212;2022-09-06T05:44:14;9.83;;;8.37;;
15104;SDS011;7653;48.994;9.212;2022-09-06T05:46:43;8.80;;;7.73;;
15104;SDS011;7653;48.994;9.212;2022-09-06T05:49:10;10.07;;;7.57;;
15104;SDS011;7653;48.994;9.212;2022-09-06T05:51:36;8.67;;;7.10;;
15104;SDS011;7653;48.994;9.212;2022-09-06T05:54:02;8.43;;;7.47;;
15104;SDS011;7653;48.994;9.212;2022-09-06T05:56:28;11.53;;;8.57;;
15104;SDS011;7653;48.994;9.212;2022-09-06T05:58:54;9.17;;;8.03;;
15104;SDS011;7653;48.994;9.212;2022-09-06T06:01:20;10.07;;;7.97;;
15104;SDS011;7653;48.994;9.212;2022-09-06T06:06:18;9.30;;;8.40;;
15104;SDS011;7653;48.994;9.212;2022-09-06T06:08:44;11.87;;;8.30;;
15104;SDS011;7653;48.994;9.212;2022-09-06T06:11:10;8.50;;;7.60;;
15104;SDS011;7653;48.994;9.212;2022-09-06T06:13:37;8.70;;;7.83;;
15104;SDS011;7653;48.994;9.212;2022-09-06T06:16:07;11.30;;;8.60;;
15104;SDS011;7653;48.994;9.212;2022-09-06T06:18:34;9.50;;;8.53;;
15104;SDS011;7653;48.994;9.212;2022-09-06T06:23:40;9.50;;;8.23;;
15104;SDS011;7653;48.994;9.212;2022-09-06T06:26:07;8.73;;;7.83;;
15104;SDS011;7653;48.994;9.212;2022-09-06T06:28:34;8.63;;;7.83;;
15104;SDS011;7653;48.994;9.212;2022-09-06T06:31:04;9.40;;;8.50;;
15104;SDS011;7653;48.994;9.212;2022-09-06T06:33:30;11.83;;;8.70;;
15104;SDS011;7653;48.994;9.212;2022-09-06T06:38:22;10.23;;;9.23;;
15104;SDS011;7653;48.994;9.212;2022-09-06T06:40:48;12.30;;;8.97;;
15104;SDS011;7653;48.994;9.212;2022-09-06T06:43:13;12.27;;;8.57;;
15104;SDS011;7653;48.994;9.212;2022-09-06T06:45:39;11.90;;;8.27;;
15104;SDS011;7653;48.994;9.212;2022-09-06T06:48:04;9.40;;;8.17;;
15104;SDS011;7653;48.994;9.212;2022-09-06T06:50:30;8.63;;;7.73;;
15104;SDS011;7653;48.994;9.212;2022-09-06T06:52:56;9.17;;;8.03;;
15104;SDS011;7653;48.994;9.212;2022-09-06T06:55:22;10.63;;;8.27;;
15104;SDS011;7653;48.994;9.212;2022-09-06T06:57:48;10.93;;;8.13;;
15104;SDS011;7653;48.994;9.212;2022-09-06T07:00:14;9.03;;;7.63;;
15104;SDS011;7653;48.994;9.212;2022-09-06T07:02:40;11.33;;;8.03;;
15104;SDS011;7653;48.994;9.212;2022-09-06T07:05:06;10.17;;;7.93;;
15104;SDS011;7653;48.994;9.212;2022-09-06T07:07:32;11.27;;;8.00;;
15104;SDS011;7653;48.994;9.212;2022-09-06T07:09:58;11.63;;;8.70;;
15104;SDS011;7653;48.994;9.212;2022-09-06T07:12:24;8.20;;;7.40;;
15104;SDS011;7653;48.994;9.212;2022-09-06T07:14:49;14.33;;;8.43;;
15104;SDS011;7653;48.994;9.212;2022-09-06T07:17:15;10.83;;;8.60;;
15104;SDS011;7653;48.994;9.212;2022-09-06T07:19:41;13.77;;;8.80;;
15104;SDS011;7653;48.994;9.212;2022-09-06T07:22:06;12.03;;;8.53;;
15104;SDS011;7653;48.994;9.212;2022-09-06T07:24:32;9.43;;;8.40;;
15104;SDS011;7653;48.994;9.212;2022-09-06T07:26:58;9.53;;;8.47;;
15104;SDS011;7653;48.994;9.212;2022-09-06T07:29:24;9.57;;;8.03;;
15104;SDS011;7653;48.994;9.212;2022-09-06T07:31:50;10.80;;;8.33;;
15104;SDS011;7653;48.994;9.212;2022-09-06T07:34:20;13.17;;;9.70;;
15104;SDS011;7653;48.994;9.212;2022-09-06T07:36:46;15.90;;;8.60;;
15104;SDS011;7653;48.994;9.212;2022-09-06T07:39:12;9.83;;;8.57;;
15104;SDS011;7653;48.994;9.212;2022-09-06T07:41:38;12.23;;;9.40;;
15104;SDS011;7653;48.994;9.212;2022-09-06T07:44:03;15.70;;;8.77;;
15104;SDS011;7653;48.994;9.212;2022-09-06T07:46:29;11.47;;;8.93;;
15104;SDS011;7653;48.994;9.212;2022-09-06T07:48:55;9.90;;;7.90;;
15104;SDS011;7653;48.994;9.212;2022-09-06T07:51:21;10.47;;;8.47;;
15104;SDS011;7653;48.994;9.212;2022-09-06T07:53:48;9.63;;;8.00;;
15104;SDS011;7653;48.994;9.212;2022-09-06T07:56:16;10.13;;;7.97;;
15104;SDS011;7653;48.994;9.212;2022-09-06T07:58:42;12.47;;;7.67;;
15104;SDS011;7653;48.994;9.212;2022-09-06T08:01:15;9.27;;;6.73;;
15104;SDS011;7653;48.994;9.212;2022-09-06T08:03:41;12.10;;;6.77;;
15104;SDS011;7653;48.994;9.212;2022-09-06T08:06:07;6.87;;;6.17;;
15104;SDS011;7653;48.994;9.212;2022-09-06T08:08:33;7.57;;;5.77;;
15104;SDS011;7653;48.994;9.212;2022-09-06T08:10:59;10.93;;;6.00;;
15104;SDS011;7653;48.994;9.212;2022-09-06T08:13:25;7.83;;;6.13;;
15104;SDS011;7653;48.994;9.212;2022-09-06T08:15:57;7.13;;;5.70;;
15104;SDS011;7653;48.994;9.212;2022-09-06T08:18:24;6.93;;;5.50;;
15104;SDS011;7653;48.994;9.212;2022-09-06T08:20:50;7.70;;;5.20;;
15104;SDS011;7653;48.994;9.212;2022-09-06T08:23:15;6.97;;;5.33;;
15104;SDS011;7653;48.994;9.212;2022-09-06T08:25:41;9.03;;;5.20;;
15104;SDS011;7653;48.994;9.212;2022-09-06T08:28:07;6.47;;;5.03;;
15104;SDS011;7653;48.994;9.212;2022-09-06T08:30:32;8.63;;;5.53;;
15104;SDS011;7653;48.994;9.212;2022-09-06T08:32:59;9.87;;;5.00;;
15104;SDS011;7653;48.994;9.212;2022-09-06T08:35:25;6.67;;;4.63;;
15104;SDS011;7653;48.994;9.212;2022-09-06T08:37:51;10.23;;;4.40;;
15104;SDS011;7653;48.994;9.212;2022-09-06T08:40:19;6.70;;;4.53;;
15104;SDS011;7653;48.994;9.212;2022-09-06T08:42:47;5.07;;;4.50;;
15104;SDS011;7653;48.994;9.212;2022-09-06T08:45:14;4.67;;;4.27;;
15104;SDS011;7653;48.994;9.212;2022-09-06T08:47:43;4.53;;;3.80;;
15104;SDS011;7653;48.994;9.212;2022-09-06T08:50:09;5.53;;;4.07;;
15104;SDS011;7653;48.994;9.212;2022-09-06T08:55:42;6.03;;;3.83;;
15104;SDS011;7653;48.994;9.212;2022-09-06T09:00:52;4.50;;;3.93;;
15104;SDS011;7653;48.994;9.212;2022-09-06T09:05:58;4.47;;;3.87;;
15104;SDS011;7653;48.994;9.212;2022-09-06T09:11:09;8.03;;;3.97;;
15104;SDS011;7653;48.994;9.212;2022-09-06T09:16:11;5.73;;;3.93;;
15104;SDS011;7653;48.994;9.212;2022-09-06T09:18:39;4.23;;;3.70;;
15104;SDS011;7653;48.994;9.212;2022-09-06T09:21:07;5.47;;;3.80;;
15104;SDS011;7653;48.994;9.212;2022-09-06T09:23:34;6.53;;;3.97;;
15104;SDS011;7653;48.994;9.212;2022-09-06T09:26:03;7.50;;;4.03;;
15104;SDS011;7653;48.994;9.212;2022-09-06T09:28:33;8.83;;;3.87;;
15104;SDS011;7653;48.994;9.212;2022-09-06T09:31:00;19.27;;;4.30;;
15104;SDS011;7653;48.994;9.212;2022-09-06T09:35:58;9.73;;;3.73;;
15104;SDS011;7653;48.994;9.212;2022-09-06T09:38:28;6.03;;;3.77;;
15104;SDS011;7653;48.994;9.212;2022-09-06T09:41:00;5.13;;;3.20;;
15104;SDS011;7653;48.994;9.212;2022-09-06T09:43:38;5.10;;;3.30;;
15104;SDS011;7653;48.994;9.212;2022-09-06T09:46:10;7.33;;;3.60;;
15104;SDS011;7653;48.994;9.212;2022-09-06T09:48:38;3.70;;;3.27;;
15104;SDS011;7653;48.994;9.212;2022-09-06T09:51:34;9.13;;;3.53;;
15104;SDS011;7653;48.994;9.212;2022-09-06T09:54:07;5.93;;;3.20;;
15104;SDS011;7653;48.994;9.212;2022-09-06T10:01:45;4.57;;;3.43;;
15104;SDS011;7653;48.994;9.212;2022-09-06T10:07:22;4.93;;;3.47;;
15104;SDS011;7653;48.994;9.212;2022-09-06T10:09:56;3.87;;;3.30;;
15104;SDS011;7653;48.994;9.212;2022-09-06T10:12:32;4.27;;;3.43;;
15104;SDS011;7653;48.994;9.212;2022-09-06T10:15:00;6.33;;;3.10;;
15104;SDS011;7653;48.994;9.212;2022-09-06T10:31:34;5.70;;;3.33;;
15104;SDS011;7653;48.994;9.212;2022-09-06T10:53:33;9.00;;;3.08;;
15104;SDS011;7653;48.994;9.212;2022-09-06T10:56:19;6.45;;;2.75;;
15104;SDS011;7653;48.994;9.212;2022-09-06T10:59:02;5.57;;;3.10;;
15104;SDS011;7653;48.994;9.212;2022-09-06T11:01:41;6.25;;;2.63;;
15104;SDS011;7653;48.994;9.212;2022-09-06T11:04:20;4.13;;;2.50;;
15104;SDS011;7653;48.994;9.212;2022-09-06T11:06:53;3.10;;;2.60;;
15104;SDS011;7653;48.994;9.212;2022-09-06T11:12:08;6.97;;;2.70;;
15104;SDS011;7653;48.994;9.212;2022-09-06T11:14:39;5.47;;;2.60;;
15104;SDS011;7653;48.994;9.212;2022-09-06T11:17:21;3.80;;;2.33;;
15104;SDS011;7653;48.994;9.212;2022-09-06T11:20:04;3.38;;;2.30;;
15104;SDS011;7653;48.994;9.212;2022-09-06T11:27:58;3.20;;;2.15;;
15104;SDS011;7653;48.994;9.212;2022-09-06T11:30:25;6.07;;;2.40;;
15104;SDS011;7653;48.994;9.212;2022-09-06T11:35:50;4.50;;;2.38;;
15104;SDS011;7653;48.994;9.212;2022-09-06T11:38:22;6.63;;;2.30;;
15104;SDS011;7653;48.994;9.212;2022-09-06T11:41:00;3.53;;;2.63;;
15104;SDS011;7653;48.994;9.212;2022-09-06T11:43:47;3.10;;;2.22;;
15104;SDS011;7653;48.994;9.212;2022-09-06T11:51:53;3.53;;;2.38;;
15104;SDS011;7653;48.994;9.212;2022-09-06T11:54:21;5.40;;;2.45;;
15104;SDS011;7653;48.994;9.212;2022-09-06T12:07:32;8.20;;;2.88;;
15104;SDS011;7653;48.994;9.212;2022-09-06T12:12:53;3.38;;;2.20;;
15104;SDS011;7653;48.994;9.212;2022-09-06T12:15:28;5.85;;;2.83;;
15104;SDS011;7653;48.994;9.212;2022-09-06T12:17:57;6.75;;;2.80;;
15104;SDS011;7653;48.994;9.212;2022-09-06T12:26:01;5.05;;;2.20;;
15104;SDS011;7653;48.994;9.212;2022-09-06T12:28:30;5.32;;;2.50;;
15104;SDS011;7653;48.994;9.212;2022-09-06T12:30:57;6.20;;;2.70;;
15104;SDS011;7653;48.994;9.212;2022-09-06T12:33:24;4.95;;;2.42;;
15104;SDS011;7653;48.994;9.212;2022-09-06T12:41:40;4.45;;;2.10;;
15104;SDS011;7653;48.994;9.212;2022-09-06T12:44:11;2.92;;;2.17;;
15104;SDS011;7653;48.994;9.212;2022-09-06T12:46:42;4.13;;;2.17;;
15104;SDS011;7653;48.994;9.212;2022-09-06T12:49:14;5.70;;;2.20;;
15104;SDS011;7653;48.994;9.212;2022-09-06T12:51:43;3.83;;;2.08;;
15104;SDS011;7653;48.994;9.212;2022-09-06T12:54:22;5.57;;;1.90;;
15104;SDS011;7653;48.994;9.212;2022-09-06T12:56:50;5.00;;;2.00;;
15104;SDS011;7653;48.994;9.212;2022-09-06T13:01:55;3.38;;;1.67;;
15104;SDS011;7653;48.994;9.212;2022-09-06T13:07:03;5.70;;;1.98;;
15104;SDS011;7653;48.994;9.212;2022-09-06T13:09:33;3.47;;;1.85;;
15104;SDS011;7653;48.994;9.212;2022-09-06T13:12:02;3.85;;;1.90;;
15104;SDS011;7653;48.994;9.212;2022-09-06T13:14:42;3.38;;;1.90;;
15104;SDS011;7653;48.994;9.212;2022-09-06T13:17:08;4.13;;;2.00;;
15104;SDS011;7653;48.994;9.212;2022-09-06T13:19:48;3.25;;;2.10;;
15104;SDS011;7653;48.994;9.212;2022-09-06T13:22:35;3.92;;;2.00;;
15104;SDS011;7653;48.994;9.212;2022-09-06T13:25:05;3.63;;;2.05;;
15104;SDS011;7653;48.994;9.212;2022-09-06T13:27:41;6.10;;;2.50;;
15104;SDS011;7653;48.994;9.212;2022-09-06T13:30:19;3.83;;;1.77;;
15104;SDS011;7653;48.994;9.212;2022-09-06T13:33:06;2.70;;;1.60;;
15104;SDS011;7653;48.994;9.212;2022-09-06T13:36:03;3.65;;;1.95;;
15104;SDS011;7653;48.994;9.212;2022-09-06T13:41:04;2.95;;;1.83;;
15104;SDS011;7653;48.994;9.212;2022-09-06T13:43:57;3.60;;;2.10;;
15104;SDS011;7653;48.994;9.212;2022-09-06T13:46:33;5.40;;;2.50;;
15104;SDS011;7653;48.994;9.212;2022-09-06T13:49:02;2.67;;;2.20;;
15104;SDS011;7653;48.994;9.212;2022-09-06T13:51:29;5.45;;;2.58;;
15104;SDS011;7653;48.994;9.212;2022-09-06T13:54:05;3.17;;;2.25;;
15104;SDS011;7653;48.994;9.212;2022-09-06T13:56:34;4.97;;;2.60;;
15104;SDS011;7653;48.994;9.212;2022-09-06T13:59:01;4.35;;;2.20;;
15104;SDS011;7653;48.994;9.212;2022-09-06T14:01:27;5.25;;;2.50;;
15104;SDS011;7653;48.994;9.212;2022-09-06T14:03:54;4.32;;;2.03;;
15104;SDS011;7653;48.994;9.212;2022-09-06T14:06:19;4.43;;;2.20;;
15104;SDS011;7653;48.994;9.212;2022-09-06T14:08:45;5.00;;;2.60;;
15104;SDS011;7653;48.994;9.212;2022-09-06T14:11:11;6.63;;;2.30;;
15104;SDS011;7653;48.994;9.212;2022-09-06T14:13:38;7.47;;;2.45;;
15104;SDS011;7653;48.994;9.212;2022-09-06T14:16:04;4.35;;;2.53;;
15104;SDS011;7653;48.994;9.212;2022-09-06T14:18:30;6.22;;;2.90;;
15104;SDS011;7653;48.994;9.212;2022-09-06T14:20:58;4.05;;;2.47;;
15104;SDS011;7653;48.994;9.212;2022-09-06T14:23:24;5.93;;;2.42;;
15104;SDS011;7653;48.994;9.212;2022-09-06T14:25:55;3.83;;;2.55;;
15104;SDS011;7653;48.994;9.212;2022-09-06T14:28:22;5.43;;;2.38;;
15104;SDS011;7653;48.994;9.212;2022-09-06T14:30:48;4.10;;;2.42;;
15104;SDS011;7653;48.994;9.212;2022-09-06T14:33:15;4.63;;;2.63;;
15104;SDS011;7653;48.994;9.212;2022-09-06T14:35:41;5.05;;;2.60;;
15104;SDS011;7653;48.994;9.212;2022-09-06T14:38:07;3.67;;;2.53;;
15104;SDS011;7653;48.994;9.212;2022-09-06T14:40:36;7.18;;;2.53;;
15104;SDS011;7653;48.994;9.212;2022-09-06T14:43:08;4.22;;;2.60;;
15104;SDS011;7653;48.994;9.212;2022-09-06T14:45:34;4.93;;;2.28;;
15104;SDS011;7653;48.994;9.212;2022-09-06T14:48:00;4.57;;;2.58;;
15104;SDS011;7653;48.994;9.212;2022-09-06T14:50:26;8.13;;;2.47;;
15104;SDS011;7653;48.994;9.212;2022-09-06T14:52:52;3.90;;;2.17;;
15104;SDS011;7653;48.994;9.212;2022-09-06T14:55:18;4.30;;;2.25;;
15104;SDS011;7653;48.994;9.212;2022-09-06T14:57:45;4.93;;;1.90;;
15104;SDS011;7653;48.994;9.212;2022-09-06T15:00:11;6.68;;;2.22;;
15104;SDS011;7653;48.994;9.212;2022-09-06T15:02:37;6.00;;;2.40;;
15104;SDS011;7653;48.994;9.212;2022-09-06T15:05:03;4.68;;;2.22;;
15104;SDS011;7653;48.994;9.212;2022-09-06T15:07:30;5.30;;;2.08;;
15104;SDS011;7653;48.994;9.212;2022-09-06T15:09:56;3.58;;;1.75;;
15104;SDS011;7653;48.994;9.212;2022-09-06T15:12:22;6.50;;;1.90;;
15104;SDS011;7653;48.994;9.212;2022-09-06T15:14:48;5.43;;;2.03;;
15104;SDS011;7653;48.994;9.212;2022-09-06T15:17:14;3.30;;;1.50;;
15104;SDS011;7653;48.994;9.212;2022-09-06T15:19:39;4.22;;;2.05;;
15104;SDS011;7653;48.994;9.212;2022-09-06T15:22:05;6.97;;;2.15;;
15104;SDS011;7653;48.994;9.212;2022-09-06T15:24:31;3.83;;;1.60;;
15104;SDS011;7653;48.994;9.212;2022-09-06T15:26:57;5.50;;;1.73;;
15104;SDS011;7653;48.994;9.212;2022-09-06T15:29:24;4.70;;;1.50;;
15104;SDS011;7653;48.994;9.212;2022-09-06T15:31:51;4.75;;;1.75;;
15104;SDS011;7653;48.994;9.212;2022-09-06T15:34:20;2.38;;;1.38;;
15104;SDS011;7653;48.994;9.212;2022-09-06T15:36:48;4.32;;;1.60;;
15104;SDS011;7653;48.994;9.212;2022-09-06T15:39:14;3.15;;;1.90;;
15104;SDS011;7653;48.994;9.212;2022-09-06T15:41:40;4.40;;;1.30;;
15104;SDS011;7653;48.994;9.212;2022-09-06T15:49:06;2.65;;;1.30;;
15104;SDS011;7653;48.994;9.212;2022-09-06T15:51:34;2.25;;;1.00;;
15104;SDS011;7653;48.994;9.212;2022-09-06T15:54:01;2.63;;;1.13;;
15104;SDS011;7653;48.994;9.212;2022-09-06T15:56:27;2.85;;;1.05;;
15104;SDS011;7653;48.994;9.212;2022-09-06T15:58:53;1.77;;;1.10;;
15104;SDS011;7653;48.994;9.212;2022-09-06T16:01:21;1.27;;;1.00;;
15104;SDS011;7653;48.994;9.212;2022-09-06T16:03:53;2.38;;;1.15;;
15104;SDS011;7653;48.994;9.212;2022-09-06T16:06:27;2.08;;;1.00;;
15104;SDS011;7653;48.994;9.212;2022-09-06T16:08:58;1.50;;;1.10;;
15104;SDS011;7653;48.994;9.212;2022-09-06T16:11:26;1.48;;;1.10;;
15104;SDS011;7653;48.994;9.212;2022-09-06T16:13:52;2.92;;;1.30;;
15104;SDS011;7653;48.994;9.212;2022-09-06T16:16:18;3.22;;;1.25;;
15104;SDS011;7653;48.994;9.212;2022-09-06T16:18:46;3.05;;;1.20;;
15104;SDS011;7653;48.994;9.212;2022-09-06T16:21:13;3.15;;;1.42;;
15104;SDS011;7653;48.994;9.212;2022-09-06T16:23:42;4.55;;;1.30;;
15104;SDS011;7653;48.994;9.212;2022-09-06T16:26:15;3.15;;;1.20;;
15104;SDS011;7653;48.994;9.212;2022-09-06T16:28:42;1.83;;;1.27;;
15104;SDS011;7653;48.994;9.212;2022-09-06T16:31:08;2.55;;;1.33;;
15104;SDS011;7653;48.994;9.212;2022-09-06T16:33:36;6.32;;;1.77;;
15104;SDS011;7653;48.994;9.212;2022-09-06T16:36:05;5.40;;;1.50;;
15104;SDS011;7653;48.994;9.212;2022-09-06T16:38:35;4.18;;;1.38;;
15104;SDS011;7653;48.994;9.212;2022-09-06T16:41:09;3.60;;;1.33;;
15104;SDS011;7653;48.994;9.212;2022-09-06T16:43:38;4.05;;;1.58;;
15104;SDS011;7653;48.994;9.212;2022-09-06T16:46:04;3.35;;;1.55;;
15104;SDS011;7653;48.994;9.212;2022-09-06T16:48:30;4.85;;;1.70;;
15104;SDS011;7653;48.994;9.212;2022-09-06T16:50:56;3.70;;;1.83;;
15104;SDS011;7653;48.994;9.212;2022-09-06T16:53:31;2.45;;;1.60;;
15104;SDS011;7653;48.994;9.212;2022-09-06T16:56:00;4.18;;;1.90;;
15104;SDS011;7653;48.994;9.212;2022-09-06T16:58:26;5.53;;;2.20;;
15104;SDS011;7653;48.994;9.212;2022-09-06T17:00:53;4.15;;;2.13;;
15104;SDS011;7653;48.994;9.212;2022-09-06T17:03:19;9.30;;;2.63;;
15104;SDS011;7653;48.994;9.212;2022-09-06T17:05:51;5.38;;;2.03;;
15104;SDS011;7653;48.994;9.212;2022-09-06T17:08:17;4.63;;;2.20;;
15104;SDS011;7653;48.994;9.212;2022-09-06T17:10:44;5.03;;;2.22;;
15104;SDS011;7653;48.994;9.212;2022-09-06T17:13:11;6.63;;;2.08;;
15104;SDS011;7653;48.994;9.212;2022-09-06T17:15:38;6.38;;;2.17;;
15104;SDS011;7653;48.994;9.212;2022-09-06T17:18:22;4.70;;;2.30;;
15104;SDS011;7653;48.994;9.212;2022-09-06T17:20:56;5.78;;;2.00;;
15104;SDS011;7653;48.994;9.212;2022-09-06T17:23:24;5.30;;;2.00;;
15104;SDS011;7653;48.994;9.212;2022-09-06T17:25:51;4.05;;;2.00;;
15104;SDS011;7653;48.994;9.212;2022-09-06T17:28:18;5.40;;;2.03;;
15104;SDS011;7653;48.994;9.212;2022-09-06T17:30:44;7.15;;;2.00;;
15104;SDS011;7653;48.994;9.212;2022-09-06T17:33:10;4.68;;;1.92;;
15104;SDS011;7653;48.994;9.212;2022-09-06T17:35:37;5.00;;;1.90;;
15104;SDS011;7653;48.994;9.212;2022-09-06T17:38:04;4.57;;;2.28;;
15104;SDS011;7653;48.994;9.212;2022-09-06T17:40:29;3.80;;;1.95;;